createdAt,value
2022-10-23T00:01:35.906Z,31.85
2022-10-23T00:05:40.495Z,32.83
2022-10-23T00:07:42.444Z,33.88
2022-10-23T00:09:44.034Z,35.05
2022-10-23T00:11:47.992Z,33.30
2022-10-23T00:13:50.990Z,33.05
2022-10-23T00:17:59.169Z,32.42
2022-10-23T00:20:01.046Z,32.75
2022-10-23T00:22:02.954Z,34.53
2022-10-23T00:24:04.985Z,32.03
2022-10-23T00:26:08.145Z,33.20
2022-10-23T00:28:10.247Z,34.53
2022-10-23T00:30:12.750Z,32.20
2022-10-23T00:32:14.331Z,33.67
2022-10-23T00:34:15.867Z,33.30
2022-10-23T00:36:18.760Z,34.42
2022-10-23T00:38:20.398Z,34.38
2022-10-23T00:40:21.944Z,32.22
2022-10-23T00:42:24.172Z,33.50
2022-10-23T00:44:25.720Z,33.43
2022-10-23T00:46:27.765Z,33.25
2022-10-23T00:48:29.522Z,34.10
2022-10-23T00:50:32.990Z,33.13
2022-10-23T00:52:36.899Z,33.70
2022-10-23T00:54:40.286Z,32.70
2022-10-23T00:56:43.595Z,32.25
2022-10-23T00:58:45.132Z,32.55
2022-10-23T01:00:48.955Z,31.15
2022-10-23T01:02:51.123Z,32.83
2022-10-23T01:04:52.739Z,34.10
2022-10-23T01:07:05.734Z,33.35
2022-10-23T01:09:07.480Z,33.75
2022-10-23T01:11:31.695Z,32.58
2022-10-23T01:13:44.548Z,31.98
2022-10-23T01:16:21.348Z,32.45
2022-10-23T01:18:36.182Z,33.00
2022-10-23T01:20:40.707Z,32.97
2022-10-23T01:22:45.342Z,32.80
2022-10-23T01:24:46.904Z,33.80
2022-10-23T01:27:08.929Z,34.50
2022-10-23T01:29:10.524Z,33.42
2022-10-23T01:31:16.232Z,33.70
2022-10-23T01:33:22.049Z,33.03
2022-10-23T01:35:42.507Z,34.00
2022-10-23T01:37:50.045Z,34.22
2022-10-23T01:39:53.203Z,34.17
2022-10-23T01:44:14.283Z,32.80
2022-10-23T01:46:18.010Z,35.00
2022-10-23T01:48:22.102Z,35.50
2022-10-23T01:50:24.965Z,33.30
2022-10-23T01:52:26.831Z,35.60
2022-10-23T01:54:33.524Z,35.42
2022-10-23T01:56:36.743Z,32.35
2022-10-23T01:58:39.837Z,34.60
2022-10-23T02:02:43.922Z,32.63
2022-10-23T02:04:49.179Z,32.50
2022-10-23T02:06:50.898Z,33.35
2022-10-23T02:08:52.705Z,35.13
2022-10-23T02:11:00.504Z,33.67
2022-10-23T02:13:07.967Z,33.63
2022-10-23T02:15:14.168Z,32.83
2022-10-23T02:17:36.430Z,32.95
2022-10-23T02:19:46.927Z,34.03
2022-10-23T02:21:56.366Z,35.35
2022-10-23T02:24:02.752Z,34.30
2022-10-23T02:26:24.511Z,33.08
2022-10-23T02:28:30.974Z,34.13
2022-10-23T02:30:34.425Z,35.38
2022-10-23T02:32:37.254Z,35.13
2022-10-23T02:34:39.106Z,37.35
2022-10-23T02:36:41.047Z,35.87
2022-10-23T02:38:43.530Z,35.67
2022-10-23T02:40:46.502Z,36.85
2022-10-23T02:42:52.813Z,37.42
2022-10-23T02:44:54.302Z,39.03
2022-10-23T02:46:55.769Z,39.15
2022-10-23T02:49:09.720Z,36.95
2022-10-23T02:51:30.208Z,38.60
2022-10-23T02:53:37.486Z,36.70
2022-10-23T02:55:51.543Z,37.08
2022-10-23T02:57:53.061Z,36.83
2022-10-23T03:00:03.334Z,39.03
2022-10-23T03:02:37.623Z,36.60
2022-10-23T03:04:40.147Z,38.75
2022-10-23T03:06:41.781Z,37.42
2022-10-23T03:08:45.434Z,38.22
2022-10-23T03:10:49.881Z,39.40
2022-10-23T03:12:51.567Z,38.38
2022-10-23T03:14:53.281Z,37.13
2022-10-23T03:16:54.852Z,37.03
2022-10-23T03:18:56.411Z,38.53
2022-10-23T03:20:58.272Z,40.70
2022-10-23T03:22:59.935Z,41.20
2022-10-23T03:25:01.845Z,39.00
2022-10-23T03:27:03.691Z,41.60
2022-10-23T03:29:05.460Z,39.00
2022-10-23T03:31:07.009Z,40.40
2022-10-23T03:33:08.775Z,40.80
2022-10-23T03:35:10.352Z,40.95
2022-10-23T03:37:12.003Z,41.60
2022-10-23T03:39:13.765Z,42.00
2022-10-23T03:41:15.367Z,42.05
2022-10-23T03:43:16.907Z,44.05
2022-10-23T03:45:18.769Z,42.92
2022-10-23T03:47:20.982Z,44.65
2022-10-23T03:49:22.591Z,45.05
2022-10-23T03:51:24.428Z,42.83
2022-10-23T03:53:25.959Z,44.88
2022-10-23T03:55:27.658Z,45.17
2022-10-23T03:57:29.495Z,44.63
2022-10-23T03:59:31.126Z,42.97
2022-10-23T04:01:33.032Z,42.22
2022-10-23T04:03:34.822Z,41.17
2022-10-23T04:05:38.501Z,40.88
2022-10-23T04:07:40.022Z,39.65
2022-10-23T04:09:41.877Z,40.25
2022-10-23T04:11:43.396Z,41.20
2022-10-23T04:13:44.925Z,39.47
2022-10-23T04:15:50.483Z,39.53
2022-10-23T04:17:52.104Z,41.65
2022-10-23T04:19:53.659Z,38.78
2022-10-23T04:21:57.040Z,39.47
2022-10-23T04:23:58.696Z,39.25
2022-10-23T04:26:00.345Z,38.88
2022-10-23T04:28:02.080Z,37.90
2022-10-23T04:30:03.776Z,37.50
2022-10-23T04:32:06.795Z,36.13
2022-10-23T04:36:10.099Z,35.13
2022-10-23T04:38:11.734Z,36.50
2022-10-23T04:40:13.490Z,36.80
2022-10-23T04:42:15.280Z,37.00
2022-10-23T04:44:17.216Z,38.23
2022-10-23T04:46:18.973Z,36.58
2022-10-23T04:48:23.379Z,37.83
2022-10-23T04:50:27.630Z,38.85
2022-10-23T04:52:29.334Z,38.25
2022-10-23T04:54:35.248Z,37.70
2022-10-23T04:56:36.863Z,39.35
2022-10-23T04:58:38.594Z,40.20
2022-10-23T05:00:40.122Z,39.40
2022-10-23T05:02:42.360Z,39.38
2022-10-23T05:04:44.292Z,40.38
2022-10-23T05:06:45.843Z,39.45
2022-10-23T05:08:47.402Z,38.72
2022-10-23T05:10:49.882Z,38.70
2022-10-23T05:12:51.624Z,38.72
2022-10-23T05:14:53.595Z,37.30
2022-10-23T05:17:04.343Z,38.43
2022-10-23T05:19:07.405Z,37.95
2022-10-23T05:21:12.543Z,37.00
2022-10-23T05:23:14.943Z,37.90
2022-10-23T05:25:16.875Z,38.60
2022-10-23T05:27:18.505Z,36.70
2022-10-23T05:29:20.525Z,38.08
2022-10-23T05:31:23.472Z,38.60
2022-10-23T05:35:26.830Z,36.78
2022-10-23T05:37:28.652Z,35.90
2022-10-23T05:39:30.243Z,36.78
2022-10-23T05:41:32.291Z,38.22
2022-10-23T05:43:33.852Z,37.05
2022-10-23T05:45:35.430Z,37.03
2022-10-23T05:47:37.164Z,37.47
2022-10-23T05:49:38.719Z,37.40
2022-10-23T05:51:40.553Z,38.83
2022-10-23T05:53:42.605Z,38.17
2022-10-23T05:55:44.175Z,38.85
2022-10-23T05:57:46.059Z,41.25
2022-10-23T05:59:47.956Z,36.53
2022-10-23T06:01:49.589Z,37.53
2022-10-23T06:03:51.273Z,35.88
2022-10-23T06:05:52.990Z,38.83
2022-10-23T06:07:58.707Z,38.25
2022-10-23T06:10:01.382Z,39.53
2022-10-23T06:12:03.543Z,37.03
2022-10-23T06:14:05.803Z,37.08
2022-10-23T06:16:11.228Z,36.78
2022-10-23T06:18:12.969Z,36.70
2022-10-23T06:20:14.625Z,38.40
2022-10-23T06:22:16.157Z,36.30
2022-10-23T06:24:17.971Z,35.58
2022-10-23T06:26:19.608Z,34.42
2022-10-23T06:28:21.170Z,35.05
2022-10-23T06:30:23.070Z,32.97
2022-10-23T06:32:24.629Z,33.92
2022-10-23T06:34:26.183Z,32.08
2022-10-23T06:36:27.993Z,30.88
2022-10-23T06:38:29.553Z,30.33
2022-10-23T06:40:31.063Z,31.30
2022-10-23T06:42:32.880Z,29.70
2022-10-23T06:44:34.379Z,30.17
2022-10-23T06:46:35.900Z,29.15
2022-10-23T06:48:37.625Z,26.20
2022-10-23T06:50:39.329Z,25.92
2022-10-23T06:52:46.900Z,26.08
2022-10-23T06:54:49.258Z,26.20
2022-10-23T06:56:51.207Z,33.90
2022-10-23T06:58:52.751Z,26.60
2022-10-23T07:00:54.548Z,26.65
2022-10-23T07:02:56.120Z,26.98
2022-10-23T07:04:57.975Z,26.73
2022-10-23T07:06:59.789Z,27.00
2022-10-23T07:09:01.355Z,37.10
2022-10-23T07:11:07.836Z,26.38
2022-10-23T07:13:10.336Z,26.85
2022-10-23T07:15:11.902Z,26.67
2022-10-23T07:17:13.643Z,27.90
2022-10-23T07:19:15.507Z,27.45
2022-10-23T07:21:17.143Z,29.45
2022-10-23T07:23:18.727Z,28.35
2022-10-23T07:25:24.290Z,30.30
2022-10-23T07:27:25.917Z,29.00
2022-10-23T07:29:27.453Z,28.58
2022-10-23T07:31:29.281Z,29.23
2022-10-23T07:33:30.917Z,28.75
2022-10-23T07:35:34.423Z,29.02
2022-10-23T07:37:39.488Z,29.35
2022-10-23T07:39:41.084Z,32.58
2022-10-23T07:41:42.844Z,29.67
2022-10-23T07:43:44.731Z,29.42
2022-10-23T07:45:47.323Z,30.02
2022-10-23T07:47:52.139Z,31.23
2022-10-23T07:49:53.933Z,30.27
2022-10-23T07:51:58.724Z,30.80
2022-10-23T07:54:00.320Z,29.38
2022-10-23T07:56:03.057Z,29.65
2022-10-23T07:58:04.616Z,30.08
2022-10-23T08:00:06.842Z,28.42
2022-10-23T08:02:12.539Z,29.38
2022-10-23T08:04:14.356Z,29.27
2022-10-23T08:06:15.912Z,28.73
2022-10-23T08:08:17.773Z,29.58
2022-10-23T08:10:19.336Z,27.92
2022-10-23T08:12:20.908Z,28.77
2022-10-23T08:14:22.722Z,28.23
2022-10-23T08:16:27.798Z,27.58
2022-10-23T08:18:29.439Z,28.65
2022-10-23T08:20:31.199Z,27.55
2022-10-23T08:22:32.757Z,28.17
2022-10-23T08:24:34.507Z,27.20
2022-10-23T08:26:36.263Z,44.58
2022-10-23T08:28:38.217Z,26.90
2022-10-23T08:30:39.848Z,24.40
2022-10-23T08:32:41.927Z,29.35
2022-10-23T08:34:43.963Z,26.88
2022-10-23T08:36:45.874Z,25.30
2022-10-23T08:38:48.118Z,26.50
2022-10-23T08:40:49.833Z,26.30
2022-10-23T08:42:59.106Z,25.90
2022-10-23T08:45:06.853Z,24.90
2022-10-23T08:47:11.483Z,25.17
2022-10-23T08:49:25.444Z,27.08
2022-10-23T08:51:30.088Z,26.73
2022-10-23T08:53:51.952Z,28.52
2022-10-23T08:55:59.543Z,28.90
2022-10-23T08:58:10.948Z,28.63
2022-10-23T09:00:14.168Z,30.85
2022-10-23T09:02:31.846Z,29.70
2022-10-23T09:04:37.396Z,29.60
2022-10-23T09:07:19.756Z,29.70
2022-10-23T09:09:21.360Z,31.02
2022-10-23T09:11:29.013Z,29.63
2022-10-23T09:13:32.297Z,29.83
2022-10-23T09:15:42.400Z,30.17
2022-10-23T09:17:45.231Z,29.20
2022-10-23T09:19:48.773Z,29.17
2022-10-23T09:21:50.727Z,29.40
2022-10-23T09:23:53.502Z,28.33
2022-10-23T09:25:58.115Z,27.95
2022-10-23T09:28:04.288Z,27.88
2022-10-23T09:30:08.018Z,27.70
2022-10-23T09:32:09.628Z,27.67
2022-10-23T09:34:18.190Z,27.17
2022-10-23T09:36:23.431Z,27.85
2022-10-23T09:38:39.190Z,31.08
2022-10-23T09:40:42.701Z,27.67
2022-10-23T09:42:52.068Z,27.63
2022-10-23T09:44:54.523Z,27.35
2022-10-23T09:46:59.544Z,25.80
2022-10-23T09:49:03.578Z,25.20
2022-10-23T09:51:21.088Z,25.25
2022-10-23T09:53:38.209Z,24.27
2022-10-23T09:55:40.119Z,24.10
2022-10-23T09:57:43.297Z,24.98
2022-10-23T09:59:51.467Z,25.75
2022-10-23T10:01:57.771Z,23.58
2022-10-23T10:03:59.694Z,24.70
2022-10-23T10:08:09.203Z,23.33
2022-10-23T10:10:14.036Z,25.38
2022-10-23T10:12:24.483Z,25.23
2022-10-23T10:14:42.884Z,24.13
2022-10-23T10:17:04.606Z,24.15
2022-10-23T10:19:11.978Z,24.48
2022-10-23T10:21:21.018Z,23.45
2022-10-23T10:23:27.457Z,34.38
2022-10-23T10:25:29.068Z,24.75
2022-10-23T10:27:43.587Z,25.13
2022-10-23T10:30:04.839Z,25.58
2022-10-23T10:32:29.155Z,24.73
2022-10-23T10:34:43.246Z,25.15
2022-10-23T10:36:50.693Z,26.27
2022-10-23T10:39:13.777Z,23.80
2022-10-23T10:41:35.675Z,22.95
2022-10-23T10:43:56.107Z,21.75
2022-10-23T10:45:58.283Z,23.83
2022-10-23T10:48:12.458Z,24.10
2022-10-23T10:50:32.668Z,21.50
2022-10-23T10:52:48.301Z,20.77
2022-10-23T10:54:58.475Z,20.75
2022-10-23T10:57:03.227Z,20.25
2022-10-23T10:59:11.100Z,18.83
2022-10-23T11:01:28.692Z,18.10
2022-10-23T11:03:40.390Z,17.20
2022-10-23T11:05:44.864Z,17.52
2022-10-23T11:07:54.519Z,18.30
2022-10-23T11:10:00.811Z,18.77
2022-10-23T11:12:02.475Z,18.13
2022-10-23T11:14:05.560Z,19.03
2022-10-23T11:16:28.180Z,19.80
2022-10-23T11:20:47.842Z,18.50
2022-10-23T11:22:57.892Z,18.67
2022-10-23T11:25:18.358Z,18.13
2022-10-23T11:27:40.780Z,17.20
2022-10-23T11:30:01.532Z,18.38
2022-10-23T11:32:29.305Z,18.10
2022-10-23T11:34:52.832Z,18.00
2022-10-23T11:36:55.904Z,18.75
2022-10-23T11:39:07.003Z,19.05
2022-10-23T11:41:19.966Z,18.20
2022-10-23T11:43:34.793Z,19.42
2022-10-23T11:45:37.728Z,18.43
2022-10-23T11:47:42.803Z,18.23
2022-10-23T11:49:44.472Z,17.38
2022-10-23T11:51:59.327Z,19.10
2022-10-23T11:54:24.260Z,17.70
2022-10-23T11:56:29.573Z,17.45
2022-10-23T11:58:45.454Z,18.75
2022-10-23T12:00:56.804Z,17.30
2022-10-23T12:03:00.831Z,17.25
2022-10-23T12:05:08.263Z,17.67
2022-10-23T12:07:29.233Z,17.35
2022-10-23T12:09:31.405Z,17.50
2022-10-23T12:11:47.390Z,17.25
2022-10-23T12:13:49.342Z,16.88
2022-10-23T12:15:57.167Z,19.55
2022-10-23T12:18:13.376Z,16.83
2022-10-23T12:20:34.318Z,18.10
2022-10-23T12:22:38.582Z,17.23
2022-10-23T12:24:41.267Z,16.90
2022-10-23T12:26:52.355Z,16.85
2022-10-23T12:29:09.467Z,17.38
2022-10-23T12:31:19.369Z,17.15
2022-10-23T12:33:43.042Z,17.65
2022-10-23T12:36:04.271Z,16.98
2022-10-23T12:38:19.551Z,17.92
2022-10-23T12:40:23.048Z,17.67
2022-10-23T12:42:26.367Z,17.63
2022-10-23T12:44:29.362Z,18.15
2022-10-23T12:46:42.765Z,20.55
2022-10-23T12:48:49.285Z,20.60
2022-10-23T12:50:55.140Z,19.45
2022-10-23T12:53:00.512Z,21.17
2022-10-23T12:55:11.842Z,20.15
2022-10-23T12:57:27.367Z,20.60
2022-10-23T12:59:41.899Z,21.70
2022-10-23T13:01:44.265Z,22.25
2022-10-23T13:03:48.004Z,22.92
2022-10-23T13:05:51.589Z,22.58
2022-10-23T13:07:56.698Z,23.05
2022-10-23T13:09:59.187Z,23.67
2022-10-23T13:12:02.495Z,22.88
2022-10-23T13:14:14.277Z,22.60
2022-10-23T13:16:18.974Z,23.40
2022-10-23T13:18:25.430Z,24.45
2022-10-23T13:20:28.850Z,23.52
2022-10-23T13:22:33.369Z,22.50
2022-10-23T13:24:35.398Z,21.42
2022-10-23T13:26:45.192Z,22.58
2022-10-23T13:28:48.089Z,22.77
2022-10-23T13:31:02.301Z,23.67
2022-10-23T13:33:22.688Z,24.65
2022-10-23T13:35:24.902Z,25.08
2022-10-23T13:37:33.619Z,24.42
2022-10-23T13:39:46.644Z,32.13
2022-10-23T13:41:48.728Z,25.80
2022-10-23T13:43:50.853Z,25.98
2022-10-23T13:45:52.984Z,24.50
2022-10-23T13:47:54.657Z,26.17
2022-10-23T13:49:56.667Z,26.50
2022-10-23T13:56:30.215Z,26.52
2022-10-23T13:58:32.880Z,27.05
2022-10-23T14:00:34.915Z,27.45
2022-10-23T14:02:37.002Z,27.92
2022-10-23T14:04:39.265Z,26.83
2022-10-23T14:06:42.122Z,26.17
2022-10-23T14:08:51.413Z,26.88
2022-10-23T14:10:53.034Z,26.10
2022-10-23T14:12:55.975Z,25.67
2022-10-23T14:14:58.201Z,24.65
2022-10-23T14:17:03.036Z,24.42
2022-10-23T14:19:04.834Z,25.02
2022-10-23T14:21:07.696Z,25.67
2022-10-23T14:23:11.132Z,31.27
2022-10-23T14:25:12.960Z,25.17
2022-10-23T14:27:17.329Z,23.58
2022-10-23T14:29:23.937Z,23.52
2022-10-23T14:31:26.220Z,24.08
2022-10-23T14:33:29.137Z,22.77
2022-10-23T14:35:30.785Z,23.17
2022-10-23T14:37:33.654Z,23.73
2022-10-23T14:39:35.627Z,20.70
2022-10-23T14:41:39.327Z,21.27
2022-10-23T14:43:42.596Z,21.73
2022-10-23T14:45:44.527Z,24.67
2022-10-23T14:47:46.672Z,19.95
2022-10-23T14:49:54.583Z,20.05
2022-10-23T14:52:02.425Z,20.35
2022-10-23T14:54:09.017Z,19.67
2022-10-23T14:56:10.812Z,19.10
2022-10-23T14:58:13.116Z,19.42
2022-10-23T15:00:15.186Z,20.30
2022-10-23T15:02:18.021Z,20.83
2022-10-23T15:04:20.657Z,20.55
2022-10-23T15:06:22.822Z,20.40
2022-10-23T15:08:24.665Z,21.80
2022-10-23T15:10:26.638Z,20.67
2022-10-23T15:12:28.259Z,48.22
2022-10-23T15:14:30.180Z,22.75
2022-10-23T15:16:32.442Z,22.98
2022-10-23T15:21:00.693Z,23.83
2022-10-23T15:23:02.988Z,22.35
2022-10-23T15:25:05.481Z,23.17
2022-10-23T15:27:07.216Z,22.85
2022-10-23T15:29:10.005Z,21.58
2022-10-23T15:33:17.727Z,20.20
2022-10-23T15:35:21.725Z,19.40
2022-10-23T15:37:24.108Z,19.38
2022-10-23T15:39:28.411Z,21.30
2022-10-23T15:41:31.609Z,19.85
2022-10-23T15:43:33.315Z,19.27
2022-10-23T15:45:34.956Z,20.83
2022-10-23T15:47:36.880Z,21.27
2022-10-23T15:49:39.875Z,21.80
2022-10-23T15:51:41.944Z,21.80
2022-10-23T15:53:43.940Z,23.88
2022-10-23T15:55:46.587Z,22.58
2022-10-23T15:57:48.346Z,23.67
2022-10-23T15:59:51.188Z,25.52
2022-10-23T16:01:53.082Z,23.85
2022-10-23T16:03:54.996Z,23.40
2022-10-23T16:05:56.846Z,22.73
2022-10-23T16:07:58.744Z,22.50
2022-10-23T16:10:00.692Z,23.52
2022-10-23T16:12:03.167Z,23.55
2022-10-23T16:14:05.109Z,23.70
2022-10-23T16:16:07.075Z,22.60
2022-10-23T16:18:08.979Z,23.75
2022-10-23T16:20:10.886Z,22.55
2022-10-23T16:22:12.496Z,22.60
2022-10-23T16:24:14.365Z,22.42
2022-10-23T16:26:15.938Z,22.10
2022-10-23T16:28:17.527Z,31.23
2022-10-23T16:30:22.234Z,22.80
2022-10-23T16:32:23.805Z,22.52
2022-10-23T16:34:25.839Z,23.25
2022-10-23T16:36:28.387Z,23.00
2022-10-23T16:38:29.980Z,21.67
2022-10-23T16:40:31.825Z,22.10
2022-10-23T16:42:33.721Z,22.55
2022-10-23T16:44:35.287Z,22.83
2022-10-23T16:46:38.919Z,22.08
2022-10-23T16:48:40.992Z,22.00
2022-10-23T16:50:42.579Z,22.13
2022-10-23T16:52:44.473Z,22.27
2022-10-23T16:54:46.584Z,23.10
2022-10-23T16:56:48.484Z,23.40
2022-10-23T16:58:50.173Z,23.27
2022-10-23T17:00:57.905Z,22.77
2022-10-23T17:02:59.575Z,22.65
2022-10-23T17:05:01.219Z,23.25
2022-10-23T17:07:03.717Z,22.08
2022-10-23T17:09:05.512Z,23.70
2022-10-23T17:11:09.069Z,24.08
2022-10-23T17:13:11.199Z,24.08
2022-10-23T17:15:12.817Z,26.38
2022-10-23T17:17:14.474Z,25.30
2022-10-23T17:19:39.798Z,25.02
2022-10-23T17:21:39.658Z,30.00
2022-10-23T17:23:41.673Z,25.73
2022-10-23T17:25:43.460Z,26.50
2022-10-23T17:27:46.104Z,26.60
2022-10-23T17:29:47.878Z,26.55
2022-10-23T17:31:50.886Z,26.13
2022-10-23T17:33:54.602Z,85.32
2022-10-23T17:35:56.258Z,26.15
2022-10-23T17:37:58.041Z,24.77
2022-10-23T17:40:02.455Z,26.05
2022-10-23T17:42:22.209Z,33.38
2022-10-23T17:44:25.317Z,26.77
2022-10-23T17:46:30.397Z,24.55
2022-10-23T17:48:33.000Z,24.98
2022-10-23T17:50:35.515Z,25.50
2022-10-23T17:52:39.095Z,25.07
2022-10-23T17:54:43.455Z,25.88
2022-10-23T17:56:45.508Z,26.20
2022-10-23T17:58:47.699Z,25.50
2022-10-23T18:00:49.596Z,24.67
2022-10-23T18:02:55.596Z,24.67
2022-10-23T18:04:57.506Z,25.85
2022-10-23T18:06:59.413Z,25.58
2022-10-23T18:09:03.314Z,26.65
2022-10-23T18:11:05.496Z,25.42
2022-10-23T18:13:08.936Z,27.98
2022-10-23T18:15:11.157Z,27.83
2022-10-23T18:17:12.833Z,28.87
2022-10-23T18:19:17.141Z,27.20
2022-10-23T18:21:21.967Z,25.58
2022-10-23T18:23:23.895Z,29.17
2022-10-23T18:25:26.173Z,29.70
2022-10-23T18:27:29.424Z,31.10
2022-10-23T18:29:31.265Z,31.02
2022-10-23T18:31:33.761Z,29.10
2022-10-23T18:33:35.720Z,30.85
2022-10-23T18:35:37.460Z,30.92
2022-10-23T18:37:41.588Z,29.60
2022-10-23T18:39:44.439Z,29.90
2022-10-23T18:41:46.543Z,33.42
2022-10-23T18:43:48.301Z,29.43
2022-10-23T18:45:50.524Z,30.95
2022-10-23T18:47:52.550Z,33.05
2022-10-23T18:49:54.524Z,34.77
2022-10-23T18:51:58.355Z,37.00
2022-10-23T18:54:05.741Z,33.13
2022-10-23T18:56:08.458Z,33.67
2022-10-23T18:58:10.633Z,32.13
2022-10-23T19:00:13.118Z,31.88
2022-10-23T19:02:14.955Z,33.40
2022-10-23T19:04:18.407Z,32.80
2022-10-23T19:06:21.053Z,33.88
2022-10-23T19:08:22.915Z,32.63
2022-10-23T19:10:29.225Z,33.80
2022-10-23T19:12:31.275Z,31.95
2022-10-23T19:14:36.157Z,32.17
2022-10-23T19:17:02.492Z,31.98
2022-10-23T19:19:11.374Z,33.67
2022-10-23T19:21:13.829Z,35.13
2022-10-23T19:23:16.906Z,32.75
2022-10-23T19:25:26.257Z,34.72
2022-10-23T19:27:28.704Z,34.60
2022-10-23T19:29:31.390Z,36.40
2022-10-23T19:31:33.757Z,35.70
2022-10-23T19:33:39.270Z,34.25
2022-10-23T19:35:44.240Z,34.60
2022-10-23T19:37:46.872Z,34.00
2022-10-23T19:39:49.080Z,37.30
2022-10-23T19:41:51.887Z,38.50
2022-10-23T19:43:53.579Z,37.28
2022-10-23T19:45:55.637Z,39.17
2022-10-23T19:47:57.630Z,37.28
2022-10-23T19:49:59.358Z,37.13
2022-10-23T19:52:01.098Z,37.58
2022-10-23T19:54:03.828Z,40.80
2022-10-23T19:58:09.150Z,39.33
2022-10-23T20:00:11.904Z,39.97
2022-10-23T20:02:13.910Z,40.67
2022-10-23T20:04:17.800Z,40.53
2022-10-23T20:06:23.812Z,40.50
2022-10-23T20:08:25.555Z,39.38
2022-10-23T20:10:28.137Z,41.47
2022-10-23T20:12:31.218Z,43.83
2022-10-23T20:14:33.601Z,44.95
2022-10-23T20:16:39.466Z,46.72
2022-10-23T20:18:41.729Z,46.58
2022-10-23T20:20:43.830Z,46.03
2022-10-23T20:22:52.063Z,48.60
2022-10-23T20:24:57.390Z,50.08
2022-10-23T20:26:59.347Z,52.03
2022-10-23T20:29:01.230Z,52.70
2022-10-23T20:31:10.901Z,51.90
2022-10-23T20:33:12.989Z,48.00
2022-10-23T20:35:14.932Z,56.00
2022-10-23T20:37:17.057Z,47.40
2022-10-23T20:39:21.942Z,46.67
2022-10-23T20:41:28.492Z,47.72
2022-10-23T20:43:32.359Z,48.60
2022-10-23T20:45:34.212Z,48.08
2022-10-23T20:47:35.879Z,52.33
2022-10-23T20:49:38.202Z,54.20
2022-10-23T20:51:41.960Z,53.50
2022-10-23T20:53:44.803Z,55.25
2022-10-23T20:55:46.886Z,55.65
2022-10-23T20:57:48.853Z,54.97
2022-10-23T20:59:50.531Z,53.08
2022-10-23T21:01:55.445Z,52.38
2022-10-23T21:04:00.171Z,52.03
2022-10-23T21:06:08.648Z,49.45
2022-10-23T21:08:10.561Z,49.58
2022-10-23T21:10:12.287Z,53.75
2022-10-23T21:12:13.961Z,47.97
2022-10-23T21:14:16.252Z,45.72
2022-10-23T21:16:24.781Z,43.67
2022-10-23T21:18:44.930Z,41.65
2022-10-23T21:20:47.780Z,47.75
2022-10-23T21:22:54.227Z,50.85
2022-10-23T21:24:59.719Z,53.13
2022-10-23T21:27:02.027Z,66.68
2022-10-23T21:29:17.905Z,109.82
2022-10-23T21:31:21.864Z,85.22
2022-10-23T21:33:24.337Z,65.97
2022-10-23T21:35:27.857Z,61.22
2022-10-23T21:37:31.813Z,57.55
2022-10-23T21:39:35.311Z,59.40
2022-10-23T21:41:38.524Z,61.08
2022-10-23T21:43:41.124Z,55.92
2022-10-23T21:45:42.991Z,55.58
2022-10-23T21:47:44.963Z,55.05
2022-10-23T21:49:46.784Z,53.13
2022-10-23T21:51:48.732Z,56.35
2022-10-23T21:53:52.862Z,61.72
2022-10-23T21:55:56.048Z,56.53
2022-10-23T21:58:01.822Z,53.83
2022-10-23T22:00:05.197Z,54.70
2022-10-23T22:02:07.032Z,55.80
2022-10-23T22:04:10.369Z,55.10
2022-10-23T22:08:17.493Z,50.08
2022-10-23T22:10:19.547Z,53.08
2022-10-23T22:12:21.295Z,53.53
2022-10-23T22:14:23.308Z,52.97
2022-10-23T22:16:25.204Z,56.53
2022-10-23T22:18:26.922Z,55.60
2022-10-23T22:20:28.649Z,56.50
2022-10-23T22:22:30.520Z,55.88
2022-10-23T22:24:32.443Z,56.17
2022-10-23T22:26:40.007Z,57.97
2022-10-23T22:28:42.033Z,55.47
2022-10-23T22:30:43.855Z,57.10
2022-10-23T22:32:45.750Z,58.10
2022-10-23T22:34:52.733Z,57.05
2022-10-23T22:36:55.724Z,55.45
2022-10-23T22:38:57.506Z,58.20
2022-10-23T22:41:04.042Z,59.22
2022-10-23T22:43:05.784Z,56.00
2022-10-23T22:45:08.164Z,56.47
2022-10-23T22:47:10.103Z,57.00
2022-10-23T22:49:11.786Z,58.15
2022-10-23T22:51:16.077Z,56.17
2022-10-23T22:53:18.109Z,56.30
2022-10-23T22:55:19.793Z,55.38
2022-10-23T22:57:21.611Z,54.25
2022-10-23T22:59:23.745Z,55.38
2022-10-23T23:01:29.501Z,57.95
2022-10-23T23:03:31.690Z,57.95
2022-10-23T23:05:33.667Z,55.15
2022-10-23T23:07:35.522Z,57.75
2022-10-23T23:09:39.932Z,58.13
2022-10-23T23:11:51.315Z,56.05
2022-10-23T23:13:53.794Z,56.90
2022-10-23T23:15:55.616Z,56.88
2022-10-23T23:17:58.604Z,58.17
2022-10-23T23:20:00.233Z,55.58
2022-10-23T23:22:01.971Z,57.15
2022-10-23T23:24:04.035Z,58.70
2022-10-23T23:26:08.333Z,57.75
2022-10-23T23:28:14.604Z,55.83
2022-10-23T23:30:16.754Z,57.13
2022-10-23T23:32:18.864Z,56.50
2022-10-23T23:34:20.666Z,57.17
2022-10-23T23:36:25.372Z,56.78
2022-10-23T23:38:27.320Z,56.53
2022-10-23T23:40:28.998Z,57.20
2022-10-23T23:42:31.516Z,57.10
2022-10-23T23:44:33.470Z,57.08
2022-10-23T23:48:38.297Z,54.63
2022-10-23T23:50:39.968Z,53.85
2022-10-23T23:52:41.749Z,54.47
2022-10-23T23:54:43.677Z,53.00
2022-10-23T23:56:45.388Z,53.53
2022-10-23T23:58:47.724Z,55.90
